WetterOnline ( https://www.wetteronline.at )

Wetter aktuell Lörrach

Aktuelles Wetter: Flughafen Bale-Mulhouse (271m)

6-stündlich | Neueste Meldungen
Ortszeit Temperatur Wetter
Sa, 18.01. 13:00 6.6° C wolkig
Sa, 18.01. 7:00 5.0° C bewölkt
Sa, 18.01. 1:00 6.5° C bedeckt
Fr, 17.01. 19:00 6.9° C bedeckt
Fr, 17.01. 13:00 7.6° C bedeckt
Fr, 17.01. 7:00 1.5° C leicht bewölkt
Fr, 17.01. 1:00 3.0° C -
Do, 16.01. 19:00 5.5° C wolkenlos
Ortszeit Temperatur Wetter
Sa, 18.01. 18:00 4.6° C bewölkt
Sa, 18.01. 17:30 5° C bewölkt
Sa, 18.01. 17:00 5.0° C bewölkt
Sa, 18.01. 16:30 6° C bewölkt
Sa, 18.01. 16:00 6.0° C bewölkt
Sa, 18.01. 15:30 7° C bewölkt
Sa, 18.01. 15:00 7.2° C leicht bewölkt
Sa, 18.01. 14:30 8° C leicht bewölkt
Ortszeit Relative Feuchte Sichtweite
Sa, 18.01. 13:00 70% 40 km
Sa, 18.01. 7:00 83% 20 km
Sa, 18.01. 1:00 86% 45 km
Fr, 17.01. 19:00 96% 30 km
Fr, 17.01. 13:00 73% 20 km
Fr, 17.01. 7:00 91% 12 km
Fr, 17.01. 1:00 85% 16 km
Do, 16.01. 19:00 79% 25 km
Ortszeit Relative Feuchte Sichtweite
Sa, 18.01. 18:00 79% 40 km
Sa, 18.01. 17:30 75% >10 km
Sa, 18.01. 17:00 76% 40 km
Sa, 18.01. 16:30 70% >10 km
Sa, 18.01. 16:00 70% 40 km
Sa, 18.01. 15:30 66% >10 km
Sa, 18.01. 15:00 68% 40 km
Sa, 18.01. 14:30 61% >10 km
Ortszeit Niederschlagsmenge Niederschlagsart
Sa, 18.01. 13:00 0.0 l/m2 in 6 Std. -
Sa, 18.01. 7:00 0.6 l/m2 in 12 Std. -
Sa, 18.01. 1:00 0.6 l/m2 in 6 Std. -
Fr, 17.01. 19:00 2 l/m2 in 12 Std. Regen
Fr, 17.01. 13:00 0.0 l/m2 in 6 Std. -
Fr, 17.01. 7:00 0.0 l/m2 in 12 Std. -
Fr, 17.01. 1:00 0.0 l/m2 in 6 Std. -
Do, 16.01. 19:00 0.0 l/m2 in 12 Std. -
Ortszeit Niederschlagsmenge Niederschlagsart
Sa, 18.01. 18:00 0.0 l/m2 in 1 Std. -
Sa, 18.01. 17:30 keine Meldung -
Sa, 18.01. 17:00 0.0 l/m2 in 1 Std. -
Sa, 18.01. 16:30 keine Meldung -
Sa, 18.01. 16:00 keine Meldung -
Sa, 18.01. 15:30 keine Meldung -
Sa, 18.01. 15:00 0.0 l/m2 in 1 Std. -
Sa, 18.01. 14:30 keine Meldung -
Ortszeit Stärke Spitze Richtung
km/h Bft. km/h Grad Sektor
Sa, 18.01. 13:00 17 3 30 280° W
Sa, 18.01. 7:00 6 1 13 270° W
Sa, 18.01. 1:00 15 3 24 250° W
Fr, 17.01. 19:00 9 2 17 230° SW
Fr, 17.01. 13:00 9 2 15 170° S
Fr, 17.01. 7:00 11 2 17 190° S
Fr, 17.01. 1:00 9 2 19 190° S
Do, 16.01. 19:00 0 0 19 - -
Ortszeit Stärke Spitze Richtung
km/h Bft. km/h Grad Sektor
Sa, 18.01. 18:00 15 3 19 240° SW
Sa, 18.01. 17:30 11 2 - 270° W
Sa, 18.01. 17:00 13 3 19 310° NW
Sa, 18.01. 16:30 11 2 - 280° W
Sa, 18.01. 16:00 15 3 30 300° NW
Sa, 18.01. 15:30 15 3 - 260° W
Sa, 18.01. 15:00 20 4 31 240° SW
Sa, 18.01. 14:30 19 3 - 280° W
Ortszeit Untergrenze Bedeckung Gattung
total tief tief mittel hoch
Sa, 18.01. 13:00 840 m 6/8 6/8 Cu - Ci
Sa, 18.01. 7:00 450 m 7/8 7/8 Cu - -
Sa, 18.01. 1:00 - 8/8 - - - -
Fr, 17.01. 19:00 930 m 8/8 7/8 Cu - -
Fr, 17.01. 13:00 990 m 8/8 7/8 Cu - -
Fr, 17.01. 7:00 7800 m 2/8 0/8 - - Ci
Fr, 17.01. 1:00 - - - - - -
Do, 16.01. 19:00 - 0/8 0/8 - - -
Ortszeit Bedeckungsgrad in Achtel und Wolkenuntergrenze
Sa, 18.01. 18:00 4(1380m) 7(1800m)
Sa, 18.01. 17:30 1-2(900m) 5-7(1800m)
Sa, 18.01. 17:00 1(900m) 7(1500m)
Sa, 18.01. 16:30 1-2(930m) 5-7(1500m)
Sa, 18.01. 16:00 1(900m) 7(1500m)
Sa, 18.01. 15:30 1-2(900m) 5-7(1500m)
Sa, 18.01. 15:00 1(900m) 3(1500m)
Sa, 18.01. 14:30 1-2(840m)
Ortszeit Luftdruck NN (hPa) Tendenz (hPa in 3 Std.)
Sa, 18.01. 13:00 1029 - 0,8
Sa, 18.01. 7:00 1030 + 1,5
Sa, 18.01. 1:00 1027 + 2,0
Fr, 17.01. 19:00 1023 + 1,4
Fr, 17.01. 13:00 1021 - 1,4
Fr, 17.01. 7:00 1024 - 1,3
Fr, 17.01. 1:00 1025 - 0,8
Do, 16.01. 19:00 1027 + 0,2
Ortszeit Luftdruck NN (hPa) Tendenz (hPa in 3 Std.)
Sa, 18.01. 18:00 1030 + 0,9
Sa, 18.01. 17:30 1028 keine Meldung
Sa, 18.01. 17:00 1029 + 0,4
Sa, 18.01. 16:30 1027 keine Meldung
Sa, 18.01. 16:00 1029 - 0,3
Sa, 18.01. 15:30 1027 keine Meldung
Sa, 18.01. 15:00 1028 - 1,3
Sa, 18.01. 14:30 1027 keine Meldung
Ortszeit Schneehöhe (cm)
Sa, 18.01. 13:00 -
Sa, 18.01. 7:00 -
Sa, 18.01. 1:00 0
Fr, 17.01. 19:00 -
Fr, 17.01. 13:00 -
Fr, 17.01. 7:00 -
Fr, 17.01. 1:00 0
Do, 16.01. 19:00 -
Ortszeit Schneehöhe (cm)
Sa, 18.01. 18:00 -
Sa, 18.01. 17:30 -
Sa, 18.01. 17:00 -
Sa, 18.01. 16:30 -
Sa, 18.01. 16:00 -
Sa, 18.01. 15:30 -
Sa, 18.01. 15:00 -
Sa, 18.01. 14:30 -
Link zu dieser Seite / Seite empfehlen

Das Wetter in ...